Time;durP1;ratioP1;P1;durP2;ratioP2;P2;SDS_P1;SDS_P2;PMS_P1;PMS_P2;Temp;Humidity;BMP_temperature;BMP_pressure;BME280_temperature;BME280_humidity;BME280_pressure;Samples;Min_cycle;Max_cycle;Signal;HPM_P1;HPM_P2
2022/04/22 00:00:46;;;;;;;;;;;;;;;12.32;93.43;94710.38;4901922;29;19927;-79
2022/04/22 00:03:12;;;;;;;;;;;;;;;12.34;93.73;94718.97;4902089;29;19935;-79
2022/04/22 00:05:39;;;;;;;;;;;;;;;12.35;93.03;94719.78;4902052;29;19927;-79
2022/04/22 00:08:08;;;;;;;;;;;;;;;12.35;93.46;94722.41;4901673;29;20283;-79
2022/04/22 00:10:35;;;;;;;;;;;;;;;12.36;93.22;94727.53;4902173;29;19928;-79
2022/04/22 00:13:02;;;;;;;;;;;;;;;12.36;93.29;94731.97;4901762;29;19934;-79
2022/04/22 00:15:28;;;;;;;;;;;;;;;12.33;93.28;94732.25;4901835;29;19934;-79
2022/04/22 00:17:56;;;;;;;;;;;;;;;12.32;93.04;94728.81;4901812;29;19935;-79
2022/04/22 00:20:23;;;;;;;;;;;;;;;12.24;92.72;94717.34;4901812;29;19927;-79
2022/04/22 00:22:49;;;;;;;;;;;;;;;12.15;93.39;94710.34;4901416;29;19928;-79
2022/04/22 00:25:16;;;;;;;;;;;;;;;12.08;93.92;94696.91;4899558;29;20001;-79
2022/04/22 00:27:42;;;;;;;;;;;;;;;12.05;94.20;94689.31;4901674;29;19927;-79
2022/04/22 00:30:10;;;;;;;;;;;;;;;12.05;94.53;94677.00;4901370;29;19934;-79
2022/04/22 00:32:37;;;;;;;;;;;;;;;12.01;94.52;94672.16;4901385;29;19935;-79
2022/04/22 00:35:06;;;;;;;;;;;;;;;12.02;94.59;94681.72;4901800;29;19933;-79
2022/04/22 00:37:32;;;;;;;;;;;;;;;12.04;94.86;94685.03;4900668;29;19927;-79
2022/04/22 00:39:59;;;;;;;;;;;;;;;12.02;94.54;94692.22;4901813;29;19938;-79
2022/04/22 00:42:28;;;;;;;;;;;;;;;11.99;94.32;94693.34;4901651;29;20022;-79
2022/04/22 00:44:55;;;;;;;;;;;;;;;11.96;94.91;94679.66;4901471;29;20014;-79
2022/04/22 00:47:22;;;;;;;;;;;;;;;11.87;94.21;94686.63;4901522;29;19938;-79
2022/04/22 00:49:48;;;;;;;;;;;;;;;11.78;94.68;94684.81;4899292;29;19934;-79
2022/04/22 00:52:16;;;;;;;;;;;;;;;11.80;94.65;94682.88;4901208;29;19927;-79
2022/04/22 00:54:43;;;;;;;;;;;;;;;11.84;94.93;94678.16;4900844;29;19931;-79
2022/04/22 00:57:10;;;;;;;;;;;;;;;11.87;94.61;94675.28;4900750;29;19927;-79
2022/04/22 00:59:37;;;;;;;;;;;;;;;11.89;94.60;94673.31;4901424;29;20003;-79
2022/04/22 01:02:04;;;;;;;;;;;;;;;11.91;93.69;94672.22;4900941;29;20427;-79
2022/04/22 01:10:00;;;;;;;;;;;;;;;11.63;94.11;94636.28;4900639;29;20042;-79
2022/04/22 01:12:30;;;;;;;;;;;;;;;11.61;94.32;94636.44;4900374;29;19927;-78
2022/04/22 01:14:58;;;;;;;;;;;;;;;11.57;94.64;94652.63;4900600;29;19927;-79
2022/04/22 01:17:25;;;;;;;;;;;;;;;11.57;93.80;94648.19;4900456;29;20581;-79
2022/04/22 01:19:52;;;;;;;;;;;;;;;11.53;94.57;94652.06;4901121;29;19934;-79
2022/04/22 01:22:20;;;;;;;;;;;;;;;11.52;94.01;94637.25;4901108;29;19928;-79
2022/04/22 01:24:46;;;;;;;;;;;;;;;11.49;93.54;94633.13;4900719;29;19951;-79
2022/04/22 01:27:14;;;;;;;;;;;;;;;11.49;93.97;94609.47;4899985;29;20694;-79
2022/04/22 01:29:40;;;;;;;;;;;;;;;11.33;94.69;94590.88;4900740;29;20368;-79
2022/04/22 01:32:07;;;;;;;;;;;;;;;11.28;94.80;94592.28;4900394;29;19927;-79
2022/04/22 01:34:34;;;;;;;;;;;;;;;11.30;95.08;94579.81;4900138;29;19939;-79
2022/04/22 01:37:01;;;;;;;;;;;;;;;11.42;94.29;94576.88;4900515;29;19928;-79
2022/04/22 01:39:30;;;;;;;;;;;;;;;11.34;92.75;94565.44;4900072;29;19927;-79
2022/04/22 01:41:56;;;;;;;;;;;;;;;11.50;92.14;94576.16;4898401;29;19927;-79
2022/04/22 01:44:25;;;;;;;;;;;;;;;11.47;93.22;94574.63;4900142;29;19932;-79
2022/04/22 01:46:52;;;;;;;;;;;;;;;11.35;93.95;94586.28;4900166;29;19928;-79
2022/04/22 01:49:19;;;;;;;;;;;;;;;11.15;95.75;94593.38;4900286;29;19934;-79
2022/04/22 01:51:45;;;;;;;;;;;;;;;11.29;95.81;94602.63;4899944;29;19927;-79
2022/04/22 01:54:12;;;;;;;;;;;;;;;11.07;96.99;94600.31;4899733;29;20287;-79
2022/04/22 01:56:40;;;;;;;;;;;;;;;11.01;97.89;94604.34;4900307;29;19927;-79
2022/04/22 01:59:07;;;;;;;;;;;;;;;10.96;98.53;94603.06;4899720;29;19928;-79
2022/04/22 02:01:33;;;;;;;;;;;;;;;10.85;97.91;94610.13;4899817;29;19938;-79
2022/04/22 02:04:00;;;;;;;;;;;;;;;10.93;97.47;94606.81;4899467;29;19943;-79
2022/04/22 02:06:28;;;;;;;;;;;;;;;10.92;97.28;94613.03;4899911;29;20356;-79
2022/04/22 02:08:54;;;;;;;;;;;;;;;11.09;96.53;94614.97;4899739;29;20376;-79
2022/04/22 02:11:21;;;;;;;;;;;;;;;11.24;95.39;94630.25;4899659;29;19927;-79
2022/04/22 02:13:49;;;;;;;;;;;;;;;11.33;95.22;94629.44;4899633;29;19927;-79
2022/04/22 02:16:15;;;;;;;;;;;;;;;11.41;94.98;94640.06;4899759;29;19928;-79
2022/04/22 02:18:43;;;;;;;;;;;;;;;11.51;94.18;94650.53;4899605;29;19954;-79
2022/04/22 02:21:10;;;;;;;;;;;;;;;11.55;93.77;94644.03;4899605;29;19934;-79
2022/04/22 02:23:37;;;;;;;;;;;;;;;11.57;93.39;94642.94;4899471;29;19928;-79
2022/04/22 02:26:04;;;;;;;;;;;;;;;11.46;93.52;94651.81;4899228;29;20000;-79
2022/04/22 02:28:33;;;;;;;;;;;;;;;11.38;94.16;94640.34;4899344;29;20376;-79
2022/04/22 02:31:01;;;;;;;;;;;;;;;11.37;94.48;94630.81;4899327;29;20288;-79
2022/04/22 02:33:28;;;;;;;;;;;;;;;11.36;94.45;94616.84;4866305;29;19927;-79
2022/04/22 02:35:54;;;;;;;;;;;;;;;11.41;94.82;94613.78;4899503;29;19927;-79
2022/04/22 02:38:21;;;;;;;;;;;;;;;11.44;94.39;94608.25;4898877;29;19931;-79
2022/04/22 02:46:17;;;;;;;;;;;;;;;11.33;92.79;94616.31;4899053;29;20635;-79
2022/04/22 02:48:44;;;;;;;;;;;;;;;11.28;93.63;94608.03;4899260;29;19939;-79
2022/04/22 02:51:11;;;;;;;;;;;;;;;11.04;93.53;94617.19;4899160;29;19927;-79
2022/04/22 02:53:37;;;;;;;;;;;;;;;11.27;93.61;94611.59;4898942;29;19928;-79
2022/04/22 02:56:06;;;;;;;;;;;;;;;11.33;92.93;94609.25;4899060;29;19932;-79
2022/04/22 02:58:32;;;;;;;;;;;;;;;11.42;92.92;94608.41;4897024;29;19934;-79
2022/04/22 03:00:59;;;;;;;;;;;;;;;11.47;91.70;94607.97;4899258;29;19928;-79
2022/04/22 03:03:27;;;;;;;;;;;;;;;11.48;92.18;94610.44;4898871;29;19928;-79
2022/04/22 03:05:53;;;;;;;;;;;;;;;11.50;92.35;94607.69;4898720;29;19928;-80
2022/04/22 03:08:20;;;;;;;;;;;;;;;11.52;90.96;94611.00;4898886;29;19934;-79
2022/04/22 03:10:48;;;;;;;;;;;;;;;11.53;90.31;94607.38;4899285;29;19927;-79
2022/04/22 03:13:15;;;;;;;;;;;;;;;11.51;91.01;94609.34;4899169;29;19927;-80
2022/04/22 03:15:42;;;;;;;;;;;;;;;11.54;90.27;94608.22;4896822;29;19928;-80
2022/04/22 03:18:08;;;;;;;;;;;;;;;11.28;91.15;94619.38;4898491;29;19927;-78
2022/04/22 03:20:36;;;;;;;;;;;;;;;11.21;92.00;94627.91;4900893;29;19927;-79
2022/04/22 03:23:03;;;;;;;;;;;;;;;11.30;91.84;94621.84;4902439;29;19943;-78
2022/04/22 03:25:30;;;;;;;;;;;;;;;11.16;91.39;94625.72;4901934;29;20392;-81
2022/04/22 03:27:56;;;;;;;;;;;;;;;10.87;93.68;94628.38;4902636;29;20348;-78
2022/04/22 03:30:23;;;;;;;;;;;;;;;10.63;96.17;94634.00;4900214;29;19928;-78
2022/04/22 03:32:49;;;;;;;;;;;;;;;10.78;96.01;94634.44;4902834;29;19927;-79
2022/04/22 03:35:16;;;;;;;;;;;;;;;10.63;97.35;94617.44;4901875;29;19927;-78
2022/04/22 03:37:44;;;;;;;;;;;;;;;10.73;96.74;94634.03;4902734;29;20263;-78
2022/04/22 03:40:11;;;;;;;;;;;;;;;10.86;96.65;94645.91;4902562;29;19928;-78
2022/04/22 03:42:37;;;;;;;;;;;;;;;10.88;96.43;94637.91;4900231;29;19927;-79
2022/04/22 03:45:04;;;;;;;;;;;;;;;10.98;96.95;94648.38;4900110;29;19937;-79
2022/04/22 03:47:31;;;;;;;;;;;;;;;11.02;96.76;94639.28;4901961;29;19928;-80
2022/04/22 03:49:57;;;;;;;;;;;;;;;11.02;95.67;94655.03;4901942;29;19960;-79
2022/04/22 03:52:24;;;;;;;;;;;;;;;11.13;95.19;94637.34;4902318;29;19959;-79
2022/04/22 03:54:52;;;;;;;;;;;;;;;11.14;95.76;94625.03;4901936;29;20363;-79
2022/04/22 04:00:03;;;;;;;;;;;;;;;11.18;96.59;94644.78;4901583;29;19933;-80
2022/04/22 04:02:30;;;;;;;;;;;;;;;11.19;96.79;94677.97;4902647;29;19928;-79
2022/04/22 04:04:56;;;;;;;;;;;;;;;11.22;97.34;94658.47;4902452;29;19928;-79
2022/04/22 04:07:23;;;;;;;;;;;;;;;11.26;97.73;94672.97;4902134;29;19928;-79
2022/04/22 04:18:03;;;;;;;;;;;;;;;11.03;99.22;94623.41;4902079;29;19935;-79
2022/04/22 04:23:17;;;;;;;;;;;;;;;11.15;99.90;94635.41;4901669;29;20023;-79
2022/04/22 04:25:44;;;;;;;;;;;;;;;11.24;98.93;94643.41;4901756;29;19928;-79
2022/04/22 04:28:13;;;;;;;;;;;;;;;11.29;99.13;94641.22;4901446;29;19984;-78
2022/04/22 04:30:40;;;;;;;;;;;;;;;11.33;98.20;94632.06;4900840;29;19934;-78
2022/04/22 04:33:07;;;;;;;;;;;;;;;11.22;99.57;94627.78;4901330;29;20359;-79
2022/04/22 04:35:35;;;;;;;;;;;;;;;11.20;99.35;94626.25;4900938;29;19979;-78
2022/04/22 04:38:02;;;;;;;;;;;;;;;11.21;100.00;94622.66;4899896;29;19927;-78
2022/04/22 04:40:29;;;;;;;;;;;;;;;11.17;99.74;94622.94;4887793;29;19950;-78
2022/04/22 04:42:55;;;;;;;;;;;;;;;10.99;99.78;94619.41;4885900;29;19935;-78
2022/04/22 04:45:23;;;;;;;;;;;;;;;11.01;100.00;94621.88;4900880;29;19932;-78
2022/04/22 04:47:50;;;;;;;;;;;;;;;11.12;100.00;94616.47;4900925;29;19927;-77
2022/04/22 04:50:16;;;;;;;;;;;;;;;11.17;99.75;94628.22;4899101;29;19931;-78
2022/04/22 04:52:43;;;;;;;;;;;;;;;11.25;99.04;94624.03;4900898;29;20323;-78
2022/04/22 04:55:10;;;;;;;;;;;;;;;11.31;98.70;94620.88;4901059;29;19950;-79
2022/04/22 04:57:37;;;;;;;;;;;;;;;11.39;97.81;94624.44;4901163;29;19928;-78
2022/04/22 05:00:05;;;;;;;;;;;;;;;11.47;97.76;94626.34;4901259;29;19928;-78
2022/04/22 05:02:33;;;;;;;;;;;;;;;11.54;97.37;94627.44;4900810;29;19927;-78
2022/04/22 05:05:00;;;;;;;;;;;;;;;11.60;97.14;94623.44;4900535;29;20336;-78
2022/04/22 05:07:26;;;;;;;;;;;;;;;11.65;96.31;94629.09;4900479;29;19931;-78
2022/04/22 05:09:53;;;;;;;;;;;;;;;11.59;95.20;94614.72;4900840;29;19934;-78
2022/04/22 05:12:19;;;;;;;;;;;;;;;11.53;93.64;94602.13;4901000;29;19927;-78
2022/04/22 05:14:46;;;;;;;;;;;;;;;11.47;93.52;94586.94;4900527;29;19928;-78
2022/04/22 05:17:13;;;;;;;;;;;;;;;11.48;93.22;94581.53;4900405;29;19985;-78
2022/04/22 05:19:41;;;;;;;;;;;;;;;11.51;93.98;94588.31;4900891;29;20291;-78
2022/04/22 05:22:08;;;;;;;;;;;;;;;11.50;93.86;94584.03;4900863;29;19927;-78
2022/04/22 05:24:35;;;;;;;;;;;;;;;11.50;94.01;94584.03;4900292;29;20375;-78
2022/04/22 05:27:02;;;;;;;;;;;;;;;11.54;94.05;94567.00;4900328;29;19966;-78
2022/04/22 05:34:58;;;;;;;;;;;;;;;11.54;95.36;94532.84;4900054;29;20509;-78
2022/04/22 05:37:24;;;;;;;;;;;;;;;11.54;95.68;94514.44;4899821;29;19974;-79
2022/04/22 05:39:51;;;;;;;;;;;;;;;11.51;95.94;94496.34;4899819;29;20018;-78
2022/04/22 05:42:17;;;;;;;;;;;;;;;11.48;96.79;94499.28;4899144;29;19935;-78
2022/04/22 05:44:44;;;;;;;;;;;;;;;11.51;97.07;94451.69;4899674;29;19927;-78
2022/04/22 05:47:11;;;;;;;;;;;;;;;11.46;97.50;94431.09;4899943;29;19934;-78
2022/04/22 05:49:38;;;;;;;;;;;;;;;11.54;97.69;94446.13;4899825;29;20359;-78
2022/04/22 05:52:07;;;;;;;;;;;;;;;11.61;97.57;94451.66;4899935;29;19982;-78
2022/04/22 05:54:34;;;;;;;;;;;;;;;11.66;97.25;94458.09;4913533;29;19928;-78
2022/04/22 05:57:01;;;;;;;;;;;;;;;11.74;97.22;94447.69;4899675;29;20256;-78
2022/04/22 05:59:27;;;;;;;;;;;;;;;11.85;96.44;94454.56;4900057;29;19927;-78
2022/04/22 06:01:54;;;;;;;;;;;;;;;11.97;96.65;94447.28;4899409;29;20347;-78
2022/04/22 06:04:20;;;;;;;;;;;;;;;12.06;96.08;94443.75;4899794;29;19928;-78
2022/04/22 06:06:47;;;;;;;;;;;;;;;12.15;95.59;94445.50;4899343;29;19928;-79
2022/04/22 06:11:59;;;;;;;;;;;;;;;12.20;95.63;94429.25;4899405;29;19964;-79
2022/04/22 06:14:26;;;;;;;;;;;;;;;12.28;95.48;94431.97;4899570;29;19935;-80
2022/04/22 06:16:52;;;;;;;;;;;;;;;12.22;92.21;94420.25;4899482;29;19927;-79
2022/04/22 06:19:19;;;;;;;;;;;;;;;12.15;90.14;94424.47;4899604;29;19927;-80
2022/04/22 06:21:45;;;;;;;;;;;;;;;12.11;87.60;94428.34;4899968;29;20295;-80
2022/04/22 06:24:12;;;;;;;;;;;;;;;12.04;92.02;94436.00;4899670;29;19927;-81
2022/04/22 06:26:40;;;;;;;;;;;;;;;12.23;93.84;94435.03;4899274;29;19928;-80
2022/04/22 06:29:07;;;;;;;;;;;;;;;12.17;88.89;94440.91;4899144;29;19938;-81
2022/04/22 06:31:35;;;;;;;;;;;;;;;12.34;88.99;94440.06;4899565;29;19928;-83
2022/04/22 06:34:02;;;;;;;;;;;;;;;12.59;89.73;94445.53;4898621;29;19928;-81
2022/04/22 06:36:29;;;;;;;;;;;;;;;12.65;85.81;94452.81;4899333;29;20356;-81
2022/04/22 06:38:58;;;;;;;;;;;;;;;12.71;84.48;94436.38;4899389;29;19935;-82
2022/04/22 06:46:54;;;;;;;;;;;;;;;12.60;83.12;94436.66;4896647;29;20018;-85
2022/04/22 06:49:21;;;;;;;;;;;;;;;12.70;84.47;94429.47;4897189;29;20016;-81
2022/04/22 06:51:48;;;;;;;;;;;;;;;12.74;83.59;94436.09;4897486;29;19951;-81
2022/04/22 06:54:15;;;;;;;;;;;;;;;12.75;81.93;94437.75;4896858;29;19928;-82
2022/04/22 06:56:42;;;;;;;;;;;;;;;12.89;84.91;94433.72;4897127;29;20264;-81
2022/04/22 06:59:09;;;;;;;;;;;;;;;12.94;82.35;94427.00;4897100;29;19928;-82
2022/04/22 07:01:37;;;;;;;;;;;;;;;13.15;81.95;94431.06;4865962;29;19927;-83
2022/04/22 07:04:05;;;;;;;;;;;;;;;13.29;80.32;94425.22;4896602;29;20018;-82
2022/04/22 07:06:31;;;;;;;;;;;;;;;13.57;80.95;94421.38;4896591;29;19927;-81
2022/04/22 07:08:58;;;;;;;;;;;;;;;13.97;80.30;94416.41;4896670;29;20691;-82
2022/04/22 07:11:26;;;;;;;;;;;;;;;14.28;78.25;94417.44;4896542;29;19927;-83
2022/04/22 07:13:53;;;;;;;;;;;;;;;14.37;75.95;94419.06;4896775;29;20450;-80
2022/04/22 07:16:21;;;;;;;;;;;;;;;14.50;80.33;94400.16;4896800;29;20585;-79
2022/04/22 07:18:49;;;;;;;;;;;;;;;14.77;78.24;94413.00;4898306;29;20438;-81
2022/04/22 07:21:16;;;;;;;;;;;;;;;15.04;73.79;94430.28;4898993;29;20276;-82
2022/04/22 07:23:43;;;;;;;;;;;;;;;15.37;73.02;94444.25;4898814;29;19935;-83
2022/04/22 07:26:10;;;;;;;;;;;;;;;15.66;72.03;94437.56;4896990;29;20291;-83
2022/04/22 07:28:37;;;;;;;;;;;;;;;16.09;71.31;94428.22;4898480;29;19979;-84
2022/04/22 07:31:04;;;;;;;;;;;;;;;16.53;70.65;94427.59;4888923;29;19963;-91
2022/04/22 07:33:31;;;;;;;;;;;;;;;16.85;74.25;94423.88;4880477;29;19927;-79
2022/04/22 07:35:59;;;;;;;;;;;;;;;17.08;64.92;94426.50;4888467;29;19932;-83
2022/04/22 07:38:26;;;;;;;;;;;;;;;17.49;64.86;94413.59;4899424;29;20308;-88
2022/04/22 07:40:53;;;;;;;;;;;;;;;17.60;62.96;94407.81;4898699;29;19934;-85
2022/04/22 07:48:52;;;;;;;;;;;;;;;18.41;61.19;94392.63;4898710;29;20434;-87
2022/04/22 07:51:20;;;;;;;;;;;;;;;18.67;61.55;94386.75;4898407;29;19927;-83
2022/04/22 08:06:12;;;;;;;;;;;;;;;19.49;54.73;94395.72;4899588;29;20434;-84
2022/04/22 08:08:40;;;;;;;;;;;;;;;19.46;55.76;94400.63;4900112;29;19935;-85
2022/04/22 08:11:07;;;;;;;;;;;;;;;18.90;57.12;94405.97;4884198;29;20050;-80
2022/04/22 08:13:35;;;;;;;;;;;;;;;19.05;56.35;94401.38;4902102;29;19950;-80
2022/04/22 08:16:01;;;;;;;;;;;;;;;19.29;57.35;94413.41;4901419;29;20438;-85
2022/04/22 08:18:28;;;;;;;;;;;;;;;19.56;56.89;94417.06;4901534;29;19938;-84
2022/04/22 08:20:55;;;;;;;;;;;;;;;19.70;55.50;94402.00;4901856;29;19928;-85
2022/04/22 08:23:22;;;;;;;;;;;;;;;19.87;57.11;94405.13;4901697;29;19931;-84
2022/04/22 08:25:50;;;;;;;;;;;;;;;19.90;54.08;94402.06;4901732;29;19934;-84
2022/04/22 08:28:17;;;;;;;;;;;;;;;19.72;53.69;94402.63;4901332;29;20368;-84
2022/04/22 08:30:43;;;;;;;;;;;;;;;19.79;54.75;94388.31;4901656;29;19927;-84
2022/04/22 08:33:10;;;;;;;;;;;;;;;19.83;55.41;94382.59;4901485;29;19949;-84
2022/04/22 08:35:37;;;;;;;;;;;;;;;19.65;54.23;94391.94;4901143;29;19935;-84
2022/04/22 08:38:05;;;;;;;;;;;;;;;19.75;55.49;94387.06;4900960;29;19935;-85
2022/04/22 08:40:32;;;;;;;;;;;;;;;19.58;55.85;94369.78;4901131;29;19928;-83
2022/04/22 08:43:01;;;;;;;;;;;;;;;19.36;55.52;94374.34;4901348;29;19934;-85
2022/04/22 08:45:28;;;;;;;;;;;;;;;19.51;56.11;94368.91;4901300;29;20276;-84
2022/04/22 08:50:41;;;;;;;;;;;;;;;19.36;55.65;94360.22;4901056;29;19987;-81
2022/04/22 08:53:11;;;;;;;;;;;;;;;19.55;56.34;94362.19;4901208;29;20106;-86
2022/04/22 08:55:38;;;;;;;;;;;;;;;19.05;55.79;94372.09;4900790;29;20388;-79
2022/04/22 08:58:07;;;;;;;;;;;;;;;18.97;55.19;94361.63;4901324;29;20295;-81
2022/04/22 09:00:35;;;;;;;;;;;;;;;19.16;57.18;94349.47;4901098;29;19928;-83
2022/04/22 09:03:01;;;;;;;;;;;;;;;19.33;54.66;94345.47;4900726;29;19928;-83
2022/04/22 09:05:29;;;;;;;;;;;;;;;19.46;54.52;94329.59;4901946;29;20032;-84
2022/04/22 09:14:04;;;;;;;;;;;;;;;19.88;55.82;94316.25;4900493;29;19930;-93
2022/04/22 09:16:31;;;;;;;;;;;;;;;20.08;55.62;94315.25;4901117;29;20340;-85
2022/04/22 09:18:59;;;;;;;;;;;;;;;20.22;53.83;94312.59;4867973;29;20005;-86
2022/04/22 09:21:26;;;;;;;;;;;;;;;20.40;53.78;94310.22;4900539;29;19971;-83
2022/04/22 09:23:53;;;;;;;;;;;;;;;20.53;54.47;94309.38;4900246;29;19928;-79
2022/04/22 09:26:21;;;;;;;;;;;;;;;20.57;54.33;94311.44;4900447;29;19935;-79
2022/04/22 09:28:56;;;;;;;;;;;;;;;20.63;54.62;94313.28;4900452;29;19934;-78
2022/04/22 09:31:25;;;;;;;;;;;;;;;20.79;65.21;94314.69;4900427;29;20355;-80
2022/04/22 09:33:51;;;;;;;;;;;;;;;21.09;61.72;94311.56;4900255;29;19927;-80
2022/04/22 09:44:49;;;;;;;;;;;;;;;20.87;50.30;94309.19;4900171;29;20300;-79
2022/04/22 09:47:17;;;;;;;;;;;;;;;20.78;53.96;94307.72;4900097;29;19927;-76
2022/04/22 09:49:44;;;;;;;;;;;;;;;20.65;51.62;94307.75;4899941;29;19927;-78
2022/04/22 09:52:13;;;;;;;;;;;;;;;20.49;52.99;94292.16;4899985;29;19931;-79
2022/04/22 09:54:40;;;;;;;;;;;;;;;20.23;53.83;94290.28;4899861;29;19935;-78
2022/04/22 09:57:07;;;;;;;;;;;;;;;20.23;53.95;94275.09;4900135;29;19934;-80
2022/04/22 09:59:35;;;;;;;;;;;;;;;20.10;54.66;94277.78;4899499;29;19927;-76
2022/04/22 10:02:02;;;;;;;;;;;;;;;19.77;55.23;94273.22;4899141;29;20406;-76
2022/04/22 10:04:31;;;;;;;;;;;;;;;19.42;56.13;94276.97;4899222;29;19950;-76
2022/04/22 10:07:00;;;;;;;;;;;;;;;19.24;56.87;94255.41;4899167;29;20316;-77
2022/04/22 10:09:28;;;;;;;;;;;;;;;19.10;57.92;94258.00;4899393;29;19931;-76
2022/04/22 10:11:58;;;;;;;;;;;;;;;19.36;57.90;94256.44;4899970;29;19935;-76
2022/04/22 10:14:35;;;;;;;;;;;;;;;19.21;56.81;94250.47;4899927;29;19927;-77
2022/04/22 10:17:03;;;;;;;;;;;;;;;19.25;58.09;94251.72;4899811;29;19958;-77
2022/04/22 10:19:32;;;;;;;;;;;;;;;19.14;58.49;94261.91;4899828;29;20287;-77
2022/04/22 10:21:59;;;;;;;;;;;;;;;19.17;59.02;94234.91;4899656;29;19928;-78
2022/04/22 10:24:25;;;;;;;;;;;;;;;19.15;58.44;94236.94;4899107;29;19927;-78
2022/04/22 10:26:53;;;;;;;;;;;;;;;19.17;59.02;94231.44;4882555;29;20421;-77
2022/04/22 10:29:20;;;;;;;;;;;;;;;19.25;58.87;94225.94;4899155;29;19946;-80
2022/04/22 10:31:47;;;;;;;;;;;;;;;19.27;57.35;94199.13;4899393;29;19934;-80
2022/04/22 10:34:14;;;;;;;;;;;;;;;19.56;59.71;94206.00;4898988;29;20376;-80
2022/04/22 10:36:43;;;;;;;;;;;;;;;18.99;57.45;94213.34;4899388;29;19927;-81
2022/04/22 11:06:53;;;;;;;;;;;;;;;19.85;56.87;94172.84;4898749;29;19926;-80
2022/04/22 11:09:28;;;;;;;;;;;;;;;20.04;54.52;94180.84;4898847;29;20248;-79
2022/04/22 11:11:55;;;;;;;;;;;;;;;20.14;55.47;94172.44;4900083;29;19928;-80
2022/04/22 11:14:23;;;;;;;;;;;;;;;20.06;55.06;94175.31;4899057;29;20002;-81
2022/04/22 11:16:50;;;;;;;;;;;;;;;19.87;55.68;94170.81;4898803;29;19934;-80
2022/04/22 11:19:36;;;;;;;;;;;;;;;20.05;56.98;94155.84;4898478;29;19927;-82
2022/04/22 11:22:04;;;;;;;;;;;;;;;20.24;54.75;94167.53;4899225;29;19927;-79
2022/04/22 11:24:33;;;;;;;;;;;;;;;20.40;54.68;94177.78;4898727;29;20047;-79
2022/04/22 11:27:04;;;;;;;;;;;;;;;20.24;53.38;94169.34;4881459;29;19932;-79
2022/04/22 11:29:31;;;;;;;;;;;;;;;20.24;54.31;94164.88;4898514;29;19928;-79
2022/04/22 11:38:30;;;;;;;;;;;;;;;20.42;54.09;94142.91;4880680;29;20360;-79
2022/04/22 11:40:58;;;;;;;;;;;;;;;20.47;54.49;94145.78;4881194;29;19984;-80
2022/04/22 11:43:28;;;;;;;;;;;;;;;20.38;54.22;94142.50;4883648;29;19928;-80
2022/04/22 11:45:54;;;;;;;;;;;;;;;20.36;53.41;94136.56;4883205;29;19944;-79
2022/04/22 11:48:22;;;;;;;;;;;;;;;20.31;54.36;94117.72;4879550;29;19951;-79
2022/04/22 11:50:49;;;;;;;;;;;;;;;20.34;54.42;94132.47;4883758;29;19932;-79
2022/04/22 11:53:16;;;;;;;;;;;;;;;20.44;52.76;94122.19;4883126;29;19927;-80
2022/04/22 11:55:43;;;;;;;;;;;;;;;20.33;52.82;94117.50;4883842;29;19935;-79
2022/04/22 11:58:11;;;;;;;;;;;;;;;20.44;53.12;94108.06;4883197;29;19932;-79
2022/04/22 12:06:07;;;;;;;;;;;;;;;20.64;51.82;94106.16;4883133;29;19935;-79
2022/04/22 12:08:34;;;;;;;;;;;;;;;20.64;51.72;94106.16;4883760;29;19928;-79
2022/04/22 12:11:01;;;;;;;;;;;;;;;20.76;53.64;94100.97;4883878;29;19935;-79
2022/04/22 12:13:29;;;;;;;;;;;;;;;20.68;54.03;94102.84;4883278;29;19928;-80
2022/04/22 12:15:55;;;;;;;;;;;;;;;20.64;54.43;94116.81;4883890;29;19928;-80
2022/04/22 12:24:27;;;;;;;;;;;;;;;20.85;52.12;94073.88;4881922;29;19979;-80
2022/04/22 12:26:54;;;;;;;;;;;;;;;20.79;51.64;94079.22;4880719;29;19928;-79
2022/04/22 12:29:24;;;;;;;;;;;;;;;20.87;52.34;94063.00;4882475;29;19936;-80
2022/04/22 12:31:51;;;;;;;;;;;;;;;20.96;53.70;94053.69;4882741;29;19980;-80
2022/04/22 12:37:24;;;;;;;;;;;;;;;21.03;52.09;94062.47;4882343;29;20394;-79
2022/04/22 12:39:51;;;;;;;;;;;;;;;21.00;52.88;94060.25;4892740;29;19966;-79
2022/04/22 12:42:27;;;;;;;;;;;;;;;20.97;55.15;94050.81;4901519;29;19983;-79
2022/04/22 12:53:28;;;;;;;;;;;;;;;20.56;56.48;94032.59;4901029;29;19938;-78
2022/04/22 12:56:01;;;;;;;;;;;;;;;20.62;57.94;94036.25;4901536;29;20278;-79
2022/04/22 12:58:28;;;;;;;;;;;;;;;20.67;60.03;94034.56;4901034;29;19935;-79
2022/04/22 13:00:54;;;;;;;;;;;;;;;20.71;59.31;94034.97;4900969;29;19931;-78
2022/04/22 13:03:23;;;;;;;;;;;;;;;20.75;58.06;94035.34;4900934;29;19928;-79
2022/04/22 13:05:49;;;;;;;;;;;;;;;20.57;57.63;94038.72;4900548;29;19931;-79
2022/04/22 13:08:17;;;;;;;;;;;;;;;20.52;56.99;94025.19;4900770;29;19927;-79
2022/04/22 13:10:44;;;;;;;;;;;;;;;20.61;57.68;94026.59;4900475;29;19928;-79
2022/04/22 13:13:12;;;;;;;;;;;;;;;20.60;59.75;94027.63;4900837;29;19934;-79
2022/04/22 13:15:38;;;;;;;;;;;;;;;20.38;59.81;94019.09;4900987;29;19927;-79
2022/04/22 13:18:05;;;;;;;;;;;;;;;20.42;60.44;94007.00;4900432;29;19935;-78
2022/04/22 13:20:33;;;;;;;;;;;;;;;20.33;59.93;94018.91;4900318;29;19934;-78
2022/04/22 13:23:00;;;;;;;;;;;;;;;20.28;59.83;94021.38;4901017;29;20288;-78
2022/04/22 13:25:26;;;;;;;;;;;;;;;20.30;61.22;94014.81;4867646;29;20028;-79
2022/04/22 13:27:53;;;;;;;;;;;;;;;20.28;60.82;94027.53;4900503;29;19952;-79
2022/04/22 13:30:20;;;;;;;;;;;;;;;20.15;60.78;94022.22;4900457;29;19947;-79
2022/04/22 13:32:46;;;;;;;;;;;;;;;20.20;59.64;94022.41;4883061;29;20592;-79
2022/04/22 13:35:13;;;;;;;;;;;;;;;20.24;59.25;94010.34;4900435;29;20371;-79
2022/04/22 13:37:41;;;;;;;;;;;;;;;20.21;59.87;94009.91;4900011;29;19938;-79
2022/04/22 13:40:08;;;;;;;;;;;;;;;20.00;60.46;94001.19;4900808;29;19962;-78
2022/04/22 13:42:35;;;;;;;;;;;;;;;20.08;59.84;93998.28;4900147;29;19934;-79
2022/04/22 13:53:14;;;;;;;;;;;;;;;20.17;59.99;93996.19;4900052;29;19954;-79
2022/04/22 13:55:41;;;;;;;;;;;;;;;20.16;59.27;93994.56;4900055;29;19927;-78
2022/04/22 13:58:08;;;;;;;;;;;;;;;20.15;60.19;93982.28;4900002;29;19950;-78
2022/04/22 14:00:35;;;;;;;;;;;;;;;20.25;60.01;93961.34;4899587;29;19927;-78
2022/04/22 14:03:02;;;;;;;;;;;;;;;20.24;59.72;93975.72;4898897;29;19983;-78
2022/04/22 14:05:28;;;;;;;;;;;;;;;20.27;58.81;93969.94;4899835;29;19936;-79
2022/04/22 14:07:58;;;;;;;;;;;;;;;20.40;59.05;93956.59;4899818;29;19951;-79
2022/04/22 14:10:26;;;;;;;;;;;;;;;20.47;58.32;93948.53;4899966;29;19927;-79
2022/04/22 14:12:53;;;;;;;;;;;;;;;20.57;56.90;93953.44;4899943;29;19928;-79
2022/04/22 14:15:20;;;;;;;;;;;;;;;20.66;56.77;93958.28;4899884;29;19974;-79
2022/04/22 14:17:47;;;;;;;;;;;;;;;20.81;54.83;93943.81;4899655;29;19927;-79
2022/04/22 14:20:13;;;;;;;;;;;;;;;20.87;55.86;93938.47;4882429;29;19927;-79
2022/04/22 14:22:40;;;;;;;;;;;;;;;21.03;56.50;93935.25;4899315;29;20284;-79
2022/04/22 14:28:11;;;;;;;;;;;;;;;21.26;55.04;93929.34;4897877;29;20406;-79
2022/04/22 14:30:38;;;;;;;;;;;;;;;21.28;54.34;93939.81;4898545;29;19953;-78
2022/04/22 14:33:05;;;;;;;;;;;;;;;21.36;54.96;93947.53;4899241;29;19928;-79
2022/04/22 14:36:04;;;;;;;;;;;;;;;21.33;54.11;93947.97;4899042;29;19934;-79
2022/04/22 14:38:31;;;;;;;;;;;;;;;21.32;54.74;93931.13;4899817;29;19934;-79
2022/04/22 14:40:57;;;;;;;;;;;;;;;21.31;54.45;93926.00;4899013;29;19927;-80
2022/04/22 14:43:25;;;;;;;;;;;;;;;21.39;53.34;93932.91;4899254;29;19927;-80
2022/04/22 14:45:52;;;;;;;;;;;;;;;21.31;53.56;93918.81;4898339;29;19934;-79
2022/04/22 14:48:19;;;;;;;;;;;;;;;21.34;53.36;93917.56;4898851;29;19934;-79
2022/04/22 14:50:45;;;;;;;;;;;;;;;21.25;52.79;93897.53;4899128;29;19927;-79
2022/04/22 14:53:12;;;;;;;;;;;;;;;21.34;53.10;93902.38;4898977;29;19935;-79
2022/04/22 14:55:39;;;;;;;;;;;;;;;21.45;53.10;93911.53;4898728;29;19928;-80
2022/04/22 14:58:05;;;;;;;;;;;;;;;21.44;53.72;93906.41;4899123;29;19928;-80
2022/04/22 15:00:35;;;;;;;;;;;;;;;21.21;53.34;93913.16;4898856;29;19928;-80
2022/04/22 15:03:02;;;;;;;;;;;;;;;21.38;53.64;93905.41;4898723;29;19975;-80
2022/04/22 15:05:29;;;;;;;;;;;;;;;21.40;52.54;93908.69;4898574;29;19927;-80
2022/04/22 15:07:56;;;;;;;;;;;;;;;21.45;54.40;93897.38;4898747;29;19933;-80